createdAt,value
2022-11-04T00:00:33.423Z,50.95
2022-11-04T00:03:00.247Z,50.47
2022-11-04T00:05:26.991Z,51.83
2022-11-04T00:08:12.282Z,52.60
2022-11-04T00:10:57.588Z,52.45
2022-11-04T00:13:24.329Z,53.38
2022-11-04T00:16:09.576Z,52.83
2022-11-04T00:18:36.324Z,54.80
2022-11-04T00:21:21.689Z,50.20
2022-11-04T00:24:06.913Z,53.05
2022-11-04T00:26:52.148Z,54.70
2022-11-04T00:29:18.893Z,54.42
2022-11-04T00:32:04.029Z,56.60
2022-11-04T00:34:30.771Z,55.10
2022-11-04T00:36:57.546Z,54.83
2022-11-04T00:39:24.295Z,53.30
2022-11-04T00:41:51.152Z,53.08
2022-11-04T00:44:17.960Z,53.50
2022-11-04T00:46:44.866Z,53.50
2022-11-04T00:49:12.924Z,52.15
2022-11-04T00:51:39.905Z,51.17
2022-11-04T00:54:06.763Z,49.90
2022-11-04T00:56:33.907Z,51.25
2022-11-04T00:59:00.794Z,44.55
2022-11-04T01:01:27.676Z,43.17
2022-11-04T01:03:54.791Z,42.30
2022-11-04T01:06:23.596Z,41.92
2022-11-04T01:08:56.377Z,35.13
2022-11-04T01:11:23.417Z,34.97
2022-11-04T01:13:51.605Z,34.17
2022-11-04T01:16:19.359Z,36.78
2022-11-04T01:18:46.647Z,36.85
2022-11-04T01:21:15.280Z,37.70
2022-11-04T01:23:43.983Z,36.05
2022-11-04T01:26:16.549Z,31.48
2022-11-04T01:28:43.566Z,29.27
2022-11-04T01:31:12.627Z,32.03
2022-11-04T01:33:39.632Z,34.17
2022-11-04T01:36:07.771Z,28.45
2022-11-04T01:38:34.859Z,25.63
2022-11-04T01:41:02.291Z,27.02
2022-11-04T01:43:44.326Z,28.48
2022-11-04T01:46:19.846Z,27.75
2022-11-04T01:48:47.167Z,31.08
2022-11-04T01:51:14.953Z,25.58
2022-11-04T01:53:44.071Z,23.98
2022-11-04T01:56:14.485Z,26.98
2022-11-04T01:58:47.241Z,25.08
2022-11-04T02:01:14.221Z,26.50
2022-11-04T02:03:48.966Z,26.83
2022-11-04T02:06:18.515Z,25.40
2022-11-04T02:08:46.479Z,24.52
2022-11-04T02:11:33.213Z,24.80
2022-11-04T02:14:01.064Z,30.52
2022-11-04T02:16:47.219Z,31.98
2022-11-04T02:19:32.756Z,32.97
2022-11-04T02:22:18.168Z,27.33
2022-11-04T02:25:18.949Z,27.98
2022-11-04T02:28:03.654Z,29.65
2022-11-04T02:30:50.440Z,29.20
2022-11-04T02:33:32.318Z,28.33
2022-11-04T02:36:04.915Z,29.67
2022-11-04T02:38:51.959Z,28.50
2022-11-04T02:41:43.115Z,26.77
2022-11-04T02:44:29.959Z,26.35
2022-11-04T02:47:06.501Z,28.60
2022-11-04T02:49:51.864Z,28.05
2022-11-04T02:52:51.501Z,24.30
2022-11-04T02:55:45.785Z,26.38
2022-11-04T02:58:23.627Z,27.88
2022-11-04T03:00:55.048Z,28.85
2022-11-04T03:03:27.069Z,26.73
2022-11-04T03:05:58.312Z,25.70
2022-11-04T03:08:33.550Z,26.27
2022-11-04T03:11:10.172Z,26.73
2022-11-04T03:13:42.470Z,23.17
2022-11-04T03:16:17.404Z,23.15
2022-11-04T03:19:05.039Z,29.00
2022-11-04T03:21:37.104Z,28.00
2022-11-04T03:24:05.400Z,26.20
2022-11-04T03:26:58.298Z,23.17
2022-11-04T03:29:39.653Z,28.17
2022-11-04T03:32:23.073Z,29.17
2022-11-04T03:34:50.655Z,27.27
2022-11-04T03:37:17.844Z,26.23
2022-11-04T03:39:44.888Z,26.13
2022-11-04T03:42:23.088Z,28.40
2022-11-04T03:44:55.190Z,28.13
2022-11-04T03:47:27.046Z,27.60
2022-11-04T03:50:03.958Z,24.75
2022-11-04T03:52:31.458Z,26.05
2022-11-04T03:54:58.209Z,29.65
2022-11-04T03:57:50.848Z,27.27
2022-11-04T04:00:20.980Z,26.05
2022-11-04T04:03:03.069Z,28.60
2022-11-04T04:05:33.277Z,29.35
2022-11-04T04:08:09.453Z,32.00
2022-11-04T04:10:42.538Z,29.35
2022-11-04T04:13:23.682Z,30.25
2022-11-04T04:16:01.121Z,31.88
2022-11-04T04:18:39.037Z,32.30
2022-11-04T04:21:09.461Z,32.40
2022-11-04T04:23:56.385Z,29.23
2022-11-04T04:26:44.187Z,33.03
2022-11-04T04:29:11.582Z,32.42
2022-11-04T04:31:49.770Z,33.42
2022-11-04T04:34:20.161Z,32.78
2022-11-04T04:37:30.213Z,29.85
2022-11-04T04:40:24.705Z,30.45
2022-11-04T04:43:13.196Z,26.65
2022-11-04T04:45:43.025Z,30.02
2022-11-04T04:48:13.255Z,32.67
2022-11-04T04:50:45.371Z,27.67
2022-11-04T04:53:12.614Z,25.58
2022-11-04T04:55:41.710Z,26.30
2022-11-04T04:58:09.400Z,24.90
2022-11-04T05:00:36.184Z,25.65
2022-11-04T05:03:02.988Z,26.17
2022-11-04T05:05:29.799Z,25.90
2022-11-04T05:08:05.210Z,24.80
2022-11-04T05:10:32.035Z,26.77
2022-11-04T05:13:19.505Z,28.30
2022-11-04T05:15:46.333Z,31.25
2022-11-04T05:18:13.129Z,29.20
2022-11-04T05:20:40.354Z,27.60
2022-11-04T05:23:08.198Z,27.20
2022-11-04T05:25:35.102Z,28.50
2022-11-04T05:28:02.377Z,27.10
2022-11-04T05:30:29.688Z,27.48
2022-11-04T05:32:59.970Z,31.52
2022-11-04T05:35:30.664Z,32.10
2022-11-04T05:37:57.710Z,31.10
2022-11-04T05:40:24.959Z,26.80
2022-11-04T05:42:51.807Z,27.70
2022-11-04T05:45:18.726Z,27.38
2022-11-04T05:47:45.536Z,26.73
2022-11-04T05:50:12.335Z,27.17
2022-11-04T05:52:39.226Z,25.90
2022-11-04T05:55:06.595Z,25.67
2022-11-04T05:57:33.354Z,25.30
2022-11-04T06:00:00.146Z,26.67
2022-11-04T06:02:27.027Z,24.90
2022-11-04T06:04:54.013Z,24.90
2022-11-04T06:07:20.861Z,23.20
2022-11-04T06:09:47.676Z,25.02
2022-11-04T06:12:15.808Z,25.55
2022-11-04T06:14:44.261Z,27.95
2022-11-04T06:17:19.448Z,25.60
2022-11-04T06:19:46.679Z,25.70
2022-11-04T06:22:15.355Z,25.88
2022-11-04T06:24:42.705Z,26.10
2022-11-04T06:27:10.286Z,26.23
2022-11-04T06:29:40.168Z,25.38
2022-11-04T06:32:12.562Z,25.50
2022-11-04T06:34:39.778Z,25.77
2022-11-04T06:37:07.227Z,26.83
2022-11-04T06:39:34.507Z,26.23
2022-11-04T06:42:02.909Z,27.25
2022-11-04T06:44:30.792Z,29.17
2022-11-04T06:46:57.863Z,27.20
2022-11-04T06:49:24.730Z,27.60
2022-11-04T06:51:52.117Z,25.13
2022-11-04T06:54:19.243Z,25.45
2022-11-04T06:56:46.205Z,23.65
2022-11-04T06:59:16.738Z,23.35
2022-11-04T07:01:43.786Z,24.25
2022-11-04T07:04:10.732Z,23.73
2022-11-04T07:06:39.813Z,23.58
2022-11-04T07:09:12.115Z,24.33
2022-11-04T07:11:39.308Z,23.27
2022-11-04T07:14:06.233Z,23.17
2022-11-04T07:16:33.007Z,24.65
2022-11-04T07:18:59.793Z,23.30
2022-11-04T07:21:26.690Z,23.08
2022-11-04T07:23:53.692Z,23.35
2022-11-04T07:26:20.481Z,22.08
2022-11-04T07:28:47.450Z,24.33
2022-11-04T07:31:15.261Z,22.95
2022-11-04T07:33:42.318Z,24.58
2022-11-04T07:36:12.883Z,23.13
2022-11-04T07:38:39.661Z,21.83
2022-11-04T07:41:06.633Z,21.90
2022-11-04T07:43:33.437Z,21.88
2022-11-04T07:46:06.666Z,22.02
2022-11-04T07:48:33.609Z,21.60
2022-11-04T07:51:01.447Z,21.65
2022-11-04T07:53:30.253Z,20.73
2022-11-04T07:55:57.861Z,20.42
2022-11-04T07:58:25.703Z,20.05
2022-11-04T08:01:01.453Z,19.98
2022-11-04T08:03:28.345Z,21.45
2022-11-04T08:05:59.924Z,22.08
2022-11-04T08:08:27.944Z,22.33
2022-11-04T08:11:00.482Z,22.70
2022-11-04T08:13:29.328Z,21.97
2022-11-04T08:15:57.055Z,23.50
2022-11-04T08:18:24.091Z,22.60
2022-11-04T08:20:52.146Z,20.85
2022-11-04T08:23:19.765Z,20.92
2022-11-04T08:25:46.677Z,19.40
2022-11-04T08:28:17.576Z,19.80
2022-11-04T08:30:56.392Z,19.17
2022-11-04T08:33:25.177Z,18.50
2022-11-04T08:35:52.714Z,18.90
2022-11-04T08:38:19.763Z,19.25
2022-11-04T08:40:46.883Z,18.65
2022-11-04T08:43:13.767Z,18.00
2022-11-04T08:45:43.017Z,18.20
2022-11-04T08:48:10.275Z,18.77
2022-11-04T08:50:37.726Z,19.55
2022-11-04T08:53:05.201Z,18.20
2022-11-04T08:55:32.980Z,17.90
2022-11-04T08:58:01.695Z,17.60
2022-11-04T09:00:28.581Z,16.77
2022-11-04T09:02:55.700Z,17.20
2022-11-04T09:05:23.161Z,17.70
2022-11-04T09:07:50.172Z,17.33
2022-11-04T09:10:17.689Z,17.20
2022-11-04T09:12:45.173Z,16.98
2022-11-04T09:15:12.546Z,15.50
2022-11-04T09:17:40.486Z,15.00
2022-11-04T09:20:07.837Z,12.07
2022-11-04T09:22:34.632Z,13.50
2022-11-04T09:25:01.680Z,14.68
2022-11-04T09:27:28.437Z,15.35
2022-11-04T09:29:55.209Z,14.57
2022-11-04T09:32:22.005Z,13.07
2022-11-04T09:34:48.842Z,12.52
2022-11-04T09:37:16.115Z,12.60
2022-11-04T09:39:42.965Z,14.00
2022-11-04T09:42:21.852Z,11.73
2022-11-04T09:45:21.243Z,10.30
2022-11-04T09:47:53.102Z,11.02
2022-11-04T09:50:49.290Z,11.43
2022-11-04T09:53:24.085Z,11.85
2022-11-04T09:55:57.497Z,14.20
2022-11-04T09:58:24.605Z,16.30
2022-11-04T10:01:04.890Z,17.45
2022-11-04T10:03:50.393Z,17.10
2022-11-04T10:06:33.371Z,18.20
2022-11-04T10:09:00.095Z,17.60
2022-11-04T10:11:42.431Z,17.77
2022-11-04T10:14:25.020Z,17.27
2022-11-04T10:17:02.409Z,17.50
2022-11-04T10:19:52.024Z,17.80
2022-11-04T10:22:32.225Z,16.98
2022-11-04T10:25:25.651Z,17.70
2022-11-04T10:27:52.844Z,18.27
2022-11-04T10:30:22.453Z,19.48
2022-11-04T10:33:16.992Z,18.83
2022-11-04T10:36:01.648Z,18.08
2022-11-04T10:39:00.554Z,17.20
2022-11-04T10:41:34.653Z,12.35
2022-11-04T10:44:26.036Z,14.77
2022-11-04T10:46:55.772Z,14.98
2022-11-04T10:49:54.744Z,16.02
2022-11-04T10:52:27.812Z,15.63
2022-11-04T10:54:54.665Z,15.02
2022-11-04T10:57:25.043Z,13.30
2022-11-04T10:59:53.933Z,12.30
2022-11-04T11:02:45.680Z,14.85
2022-11-04T11:05:18.881Z,15.10
2022-11-04T11:07:48.308Z,15.65
2022-11-04T11:10:30.787Z,15.20
2022-11-04T11:13:04.736Z,14.57
2022-11-04T11:15:38.115Z,15.43
2022-11-04T11:18:08.117Z,12.20
2022-11-04T11:20:37.904Z,12.65
2022-11-04T11:23:09.625Z,9.73
2022-11-04T11:25:45.220Z,11.93
2022-11-04T11:28:23.572Z,13.23
2022-11-04T11:30:58.609Z,12.73
2022-11-04T11:33:28.491Z,13.57
2022-11-04T11:36:11.952Z,12.68
2022-11-04T11:38:57.256Z,11.45
2022-11-04T11:41:31.357Z,10.38
2022-11-04T11:44:02.202Z,13.45
2022-11-04T11:46:32.025Z,13.30
2022-11-04T11:49:01.542Z,13.95
2022-11-04T11:51:34.717Z,13.88
2022-11-04T11:54:13.822Z,12.15
2022-11-04T11:57:12.023Z,15.98
2022-11-04T12:02:52.159Z,18.73
2022-11-04T12:11:28.325Z,23.67
2022-11-04T12:14:05.870Z,22.13
2022-11-04T12:16:35.584Z,22.40
2022-11-04T12:19:34.751Z,20.43
2022-11-04T12:22:18.371Z,19.33
2022-11-04T12:25:05.345Z,19.67
2022-11-04T12:27:52.445Z,16.85
2022-11-04T12:30:32.313Z,13.85
2022-11-04T12:33:11.680Z,15.77
2022-11-04T12:35:50.774Z,15.55
2022-11-04T12:38:43.032Z,13.32
2022-11-04T12:44:15.829Z,12.57
2022-11-04T12:46:54.810Z,12.52
2022-11-04T12:49:49.628Z,10.52
2022-11-04T12:52:43.499Z,12.02
2022-11-04T12:55:44.099Z,13.48
2022-11-04T12:58:30.128Z,11.10
2022-11-04T13:01:36.488Z,11.50
2022-11-04T13:04:10.458Z,11.23
2022-11-04T13:06:46.130Z,11.52
2022-11-04T13:09:36.615Z,12.30
2022-11-04T13:12:30.192Z,13.55
2022-11-04T13:15:07.984Z,13.30
2022-11-04T13:17:39.728Z,12.85
2022-11-04T13:20:17.351Z,13.57
2022-11-04T13:22:48.666Z,12.25
2022-11-04T13:25:31.022Z,12.13
2022-11-04T13:27:59.064Z,10.75
2022-11-04T13:30:49.996Z,10.63
2022-11-04T13:33:41.615Z,11.02
2022-11-04T13:36:48.772Z,10.77
2022-11-04T13:39:35.668Z,9.00
2022-11-04T13:42:02.462Z,10.50
2022-11-04T13:44:38.684Z,10.00
2022-11-04T13:47:17.940Z,10.60
2022-11-04T13:49:55.402Z,11.05
2022-11-04T13:52:29.366Z,11.90
2022-11-04T13:55:02.929Z,13.75
2022-11-04T13:57:51.443Z,13.88
2022-11-04T14:00:24.876Z,11.40
2022-11-04T14:02:58.118Z,10.60
2022-11-04T14:05:28.268Z,11.27
2022-11-04T14:08:03.552Z,11.18
2022-11-04T14:10:49.893Z,11.02
2022-11-04T14:13:33.438Z,11.27
2022-11-04T14:16:24.763Z,12.60
2022-11-04T14:18:53.718Z,13.80
2022-11-04T14:21:23.411Z,13.15
2022-11-04T14:24:02.943Z,13.25
2022-11-04T14:26:45.803Z,13.43
2022-11-04T14:29:41.009Z,12.80
2022-11-04T14:32:12.762Z,12.70
2022-11-04T14:34:41.043Z,12.00
2022-11-04T14:37:28.660Z,12.88
2022-11-04T14:40:00.464Z,10.93
2022-11-04T14:42:50.158Z,9.07
2022-11-04T14:45:27.018Z,9.15
2022-11-04T14:48:20.253Z,7.82
2022-11-04T14:50:51.672Z,8.93
2022-11-04T14:53:36.806Z,9.18
2022-11-04T14:56:21.994Z,7.88
2022-11-04T14:59:03.276Z,7.47
2022-11-04T15:01:34.944Z,7.10
2022-11-04T15:04:14.463Z,8.15
2022-11-04T15:06:54.339Z,8.57
2022-11-04T15:09:28.991Z,6.93
2022-11-04T15:12:32.172Z,7.55
2022-11-04T15:14:59.958Z,8.50
2022-11-04T15:17:29.742Z,9.98
2022-11-04T15:20:00.298Z,10.77
2022-11-04T15:22:29.258Z,10.95
2022-11-04T15:24:59.483Z,9.88
2022-11-04T15:27:29.864Z,10.80
2022-11-04T15:30:03.113Z,10.35
2022-11-04T15:32:30.143Z,11.45
2022-11-04T15:34:57.827Z,12.55
2022-11-04T15:37:26.546Z,12.70
2022-11-04T15:39:57.674Z,11.82
2022-11-04T15:42:37.090Z,13.00
2022-11-04T15:45:22.337Z,12.95
2022-11-04T15:47:49.798Z,13.93
2022-11-04T15:50:23.502Z,15.30
2022-11-04T15:52:55.885Z,15.63
2022-11-04T15:55:27.348Z,13.85
2022-11-04T15:57:56.137Z,14.20
2022-11-04T16:00:29.039Z,16.02
2022-11-04T16:03:01.071Z,15.52
2022-11-04T16:05:38.089Z,17.38
2022-11-04T16:08:22.802Z,16.08
2022-11-04T16:10:51.332Z,16.60
2022-11-04T16:13:18.137Z,17.10
2022-11-04T16:16:20.395Z,15.63
2022-11-04T16:18:55.731Z,15.27
2022-11-04T16:21:30.539Z,13.77
2022-11-04T16:24:18.602Z,14.65
2022-11-04T16:26:46.539Z,14.18
2022-11-04T16:29:27.331Z,15.27
2022-11-04T16:32:23.942Z,18.63
2022-11-04T16:34:53.904Z,19.23
2022-11-04T16:37:21.007Z,19.55
2022-11-04T16:39:49.917Z,18.35
2022-11-04T16:42:17.644Z,17.15
2022-11-04T16:44:55.605Z,17.90
2022-11-04T16:47:22.703Z,18.23
2022-11-04T16:49:49.464Z,19.60
2022-11-04T16:52:23.002Z,20.05
2022-11-04T16:54:49.865Z,22.30
2022-11-04T16:57:17.102Z,21.63
2022-11-04T16:59:44.092Z,21.77
2022-11-04T17:02:23.256Z,18.63
2022-11-04T17:04:50.029Z,21.63
2022-11-04T17:07:16.882Z,19.33
2022-11-04T17:09:43.990Z,22.85
2022-11-04T17:12:10.887Z,21.70
2022-11-04T17:14:37.792Z,21.43
2022-11-04T17:17:05.063Z,19.20
2022-11-04T17:19:34.836Z,20.85
2022-11-04T17:22:04.248Z,20.90
2022-11-04T17:24:31.057Z,20.58
2022-11-04T17:26:57.913Z,20.93
2022-11-04T17:29:24.996Z,18.67
2022-11-04T17:31:55.688Z,19.50
2022-11-04T17:34:25.760Z,21.15
2022-11-04T17:36:53.562Z,20.10
2022-11-04T17:39:20.465Z,19.92
2022-11-04T17:42:06.055Z,18.30
2022-11-04T17:44:32.815Z,18.90
2022-11-04T17:47:00.924Z,20.33
2022-11-04T17:49:28.672Z,20.97
2022-11-04T17:51:58.210Z,21.13
2022-11-04T17:54:26.846Z,18.20
2022-11-04T17:56:53.640Z,17.65
2022-11-04T17:59:20.530Z,16.58
2022-11-04T18:01:47.788Z,16.67
2022-11-04T18:04:23.370Z,19.93
2022-11-04T18:06:51.008Z,18.95
2022-11-04T18:09:18.106Z,19.23
2022-11-04T18:12:04.461Z,18.40
2022-11-04T18:14:31.539Z,19.38
2022-11-04T18:16:58.521Z,22.48
2022-11-04T18:19:26.405Z,17.57
2022-11-04T18:21:53.332Z,20.45
2022-11-04T18:24:20.469Z,20.97
2022-11-04T18:26:47.351Z,21.77
2022-11-04T18:29:14.258Z,22.53
2022-11-04T18:31:48.601Z,21.83
2022-11-04T18:34:19.217Z,21.27
2022-11-04T18:36:47.649Z,22.20
2022-11-04T18:39:16.727Z,22.33
2022-11-04T18:41:43.941Z,22.63
2022-11-04T18:44:16.383Z,22.20
2022-11-04T18:46:43.826Z,21.77
2022-11-04T18:49:11.866Z,24.60
2022-11-04T18:51:39.190Z,24.40
2022-11-04T18:54:07.806Z,24.93
2022-11-04T18:56:35.320Z,24.93
2022-11-04T18:59:02.911Z,25.00
2022-11-04T19:01:33.164Z,24.43
2022-11-04T19:04:01.066Z,21.97
2022-11-04T19:06:30.803Z,21.13
2022-11-04T19:09:05.113Z,24.90
2022-11-04T19:11:38.554Z,25.10
2022-11-04T19:14:10.870Z,25.40
2022-11-04T19:16:39.032Z,19.60
2022-11-04T19:19:08.675Z,23.80
2022-11-04T19:21:35.737Z,23.03
2022-11-04T19:24:05.740Z,22.40
2022-11-04T19:26:35.416Z,23.53
2022-11-04T19:29:05.757Z,24.83
2022-11-04T19:31:33.399Z,23.13
2022-11-04T19:34:05.755Z,24.70
2022-11-04T19:36:34.073Z,22.47
2022-11-04T19:39:01.292Z,22.77
2022-11-04T19:41:47.095Z,23.07
2022-11-04T19:44:16.386Z,24.90
2022-11-04T19:46:43.713Z,21.87
2022-11-04T19:49:12.484Z,22.90
2022-11-04T19:51:39.635Z,20.63
2022-11-04T19:54:06.795Z,21.63
2022-11-04T19:56:34.343Z,23.40
2022-11-04T19:59:05.796Z,21.90
2022-11-04T20:01:34.941Z,22.43
2022-11-04T20:04:03.007Z,23.03
2022-11-04T20:06:32.154Z,24.50
2022-11-04T20:09:05.435Z,22.53
2022-11-04T20:11:57.351Z,22.60
2022-11-04T20:14:24.357Z,20.90
2022-11-04T20:16:51.235Z,23.30
2022-11-04T20:19:22.603Z,23.10
2022-11-04T20:21:50.625Z,21.50
2022-11-04T20:24:17.429Z,23.10
2022-11-04T20:26:44.442Z,25.20
2022-11-04T20:29:11.678Z,26.03
2022-11-04T20:31:39.703Z,26.37
2022-11-04T20:34:08.449Z,24.60
2022-11-04T20:36:36.711Z,24.70
2022-11-04T20:39:10.090Z,22.03
2022-11-04T20:41:36.880Z,25.23
2022-11-04T20:44:04.189Z,25.10
2022-11-04T20:46:34.543Z,25.93
2022-11-04T20:49:03.042Z,24.50
2022-11-04T20:51:32.553Z,23.37
2022-11-04T20:54:01.114Z,23.93
2022-11-04T20:56:34.126Z,22.77
2022-11-04T20:59:01.885Z,24.57
2022-11-04T21:01:31.836Z,26.33
2022-11-04T21:04:07.553Z,23.50
2022-11-04T21:06:38.834Z,23.60
2022-11-04T21:09:08.313Z,26.97
2022-11-04T21:11:35.879Z,24.40
2022-11-04T21:14:04.334Z,23.77
2022-11-04T21:16:31.360Z,25.10
2022-11-04T21:18:58.523Z,25.07
2022-11-04T21:21:28.309Z,22.53
2022-11-04T21:23:59.475Z,25.67
2022-11-04T21:26:28.558Z,26.00
2022-11-04T21:28:57.692Z,27.30
2022-11-04T21:31:25.801Z,27.17
2022-11-04T21:33:53.359Z,29.00
2022-11-04T21:36:20.459Z,30.23
2022-11-04T21:38:47.226Z,29.80
2022-11-04T21:41:19.472Z,24.93
2022-11-04T21:43:46.229Z,26.17
2022-11-04T21:46:15.497Z,29.50
2022-11-04T21:48:43.067Z,28.70
2022-11-04T21:51:13.319Z,27.37
2022-11-04T21:53:41.041Z,27.40
2022-11-04T21:56:09.653Z,27.33
2022-11-04T21:58:37.218Z,25.80
2022-11-04T22:01:07.053Z,23.97
2022-11-04T22:03:34.409Z,22.40
2022-11-04T22:06:03.437Z,22.37
2022-11-04T22:08:31.696Z,25.07
2022-11-04T22:11:10.144Z,25.47
2022-11-04T22:13:37.107Z,25.50
2022-11-04T22:16:15.829Z,18.00
2022-11-04T22:18:43.493Z,21.60
2022-11-04T22:21:13.349Z,20.97
2022-11-04T22:23:40.175Z,23.50
2022-11-04T22:26:11.190Z,24.00
2022-11-04T22:28:37.964Z,24.17
2022-11-04T22:31:17.204Z,26.87
2022-11-04T22:33:44.619Z,23.87
2022-11-04T22:36:12.740Z,24.43
2022-11-04T22:38:41.037Z,21.10
2022-11-04T22:41:12.841Z,21.00
2022-11-04T22:43:40.214Z,18.17
2022-11-04T22:46:11.602Z,19.50
2022-11-04T22:48:38.389Z,22.83
2022-11-04T22:51:06.935Z,20.80
2022-11-04T22:53:33.734Z,20.83
2022-11-04T22:56:02.082Z,22.60
2022-11-04T22:58:29.858Z,23.30
2022-11-04T23:01:03.488Z,21.10
2022-11-04T23:03:30.769Z,20.90
2022-11-04T23:05:59.945Z,21.07
2022-11-04T23:08:28.523Z,20.77
2022-11-04T23:11:23.437Z,21.73
2022-11-04T23:14:15.620Z,20.03
2022-11-04T23:17:05.681Z,21.77
2022-11-04T23:19:32.534Z,21.13
2022-11-04T23:22:17.732Z,22.80
2022-11-04T23:25:03.013Z,22.10
2022-11-04T23:27:48.895Z,24.13
2022-11-04T23:30:22.249Z,23.70
2022-11-04T23:32:50.671Z,25.00
2022-11-04T23:35:37.311Z,23.30
2022-11-04T23:38:04.793Z,23.67
2022-11-04T23:40:32.766Z,23.20
2022-11-04T23:42:59.527Z,23.23
2022-11-04T23:45:44.820Z,19.73
2022-11-04T23:48:31.184Z,22.97
2022-11-04T23:51:18.806Z,24.97
2022-11-04T23:54:04.688Z,29.40
2022-11-04T23:56:50.447Z,24.37
2022-11-04T23:59:37.378Z,26.13
